Time;durP1;ratioP1;P1;durP2;ratioP2;P2;SDS_P1;SDS_P2;PMS_P1;PMS_P2;Temp;Humidity;BMP_temperature;BMP_pressure;BME280_temperature;BME280_humidity;BME280_pressure;Samples;Min_cycle;Max_cycle;Signal;HPM_P1;HPM_P2
2021/07/22 00:02:04;;;;;;;11.30;8.70;;;18.20;99.90;;;;;;4992225;28;20195;-76
2021/07/22 00:04:30;;;;;;;12.10;9.30;;;18.30;99.90;;;;;;4992175;28;20200;-77
2021/07/22 00:06:55;;;;;;;14.80;9.20;;;18.20;99.90;;;;;;4959591;28;20200;-76
2021/07/22 00:09:21;;;;;;;10.87;9.07;;;18.20;99.90;;;;;;4992470;28;20184;-78
2021/07/22 00:11:46;;;;;;;13.20;9.90;;;18.20;99.90;;;;;;4959689;28;20275;-77
2021/07/22 00:14:13;;;;;;;12.17;9.73;;;18.10;99.90;;;;;;4975908;28;20195;-77
2021/07/22 00:16:38;;;;;;;11.37;9.20;;;18.20;99.90;;;;;;4975404;28;20207;-76
2021/07/22 00:19:04;;;;;;;11.73;9.57;;;18.20;99.90;;;;;;4975248;28;20204;-77
2021/07/22 00:21:29;;;;;;;11.70;9.30;;;18.00;99.90;;;;;;4975417;28;20177;-77
2021/07/22 00:23:55;;;;;;;13.63;9.47;;;18.00;99.90;;;;;;4991902;28;20263;-77
2021/07/22 00:26:20;;;;;;;12.53;9.20;;;18.00;99.90;;;;;;4975428;28;20204;-77
2021/07/22 00:28:46;;;;;;;13.10;10.00;;;17.90;99.90;;;;;;4958998;28;20192;-76
2021/07/22 00:31:11;;;;;;;13.67;10.00;;;17.90;99.90;;;;;;4975425;28;20197;-76
2021/07/22 00:33:37;;;;;;;12.27;9.30;;;18.00;99.90;;;;;;4991459;28;20184;-76
2021/07/22 00:36:07;;;;;;;13.97;9.90;;;17.90;99.90;;;;;;4959672;28;20215;-77
2021/07/22 00:38:32;;;;;;;14.17;9.67;;;17.70;99.90;;;;;;4992596;28;20204;-77
2021/07/22 00:40:59;;;;;;;13.37;9.20;;;17.70;99.90;;;;;;4992530;28;20231;-77
2021/07/22 00:43:25;;;;;;;13.40;9.93;;;17.80;99.90;;;;;;4975700;28;20552;-76
2021/07/22 00:45:50;;;;;;;12.53;9.13;;;17.60;99.90;;;;;;4991408;28;20207;-76
2021/07/22 00:48:16;;;;;;;12.57;9.23;;;17.70;99.90;;;;;;4978005;28;20172;-78
2021/07/22 00:50:41;;;;;;;12.33;9.33;;;17.70;99.90;;;;;;4996019;28;20709;-77
2021/07/22 00:53:07;;;;;;;14.27;9.60;;;17.50;99.90;;;;;;4979460;28;20637;-77
2021/07/22 00:55:33;;;;;;;14.03;9.03;;;17.30;99.90;;;;;;4995325;28;20275;-76
2021/07/22 00:57:58;;;;;;;12.33;8.70;;;17.30;99.90;;;;;;4963383;28;20555;-76
2021/07/22 01:00:24;;;;;;;13.57;8.77;;;17.40;99.90;;;;;;4962818;28;20211;-76
2021/07/22 01:02:49;;;;;;;10.07;8.23;;;17.30;99.90;;;;;;4963044;28;20187;-77
2021/07/22 01:05:15;;;;;;;15.10;9.13;;;17.20;99.90;;;;;;4962948;28;20200;-76
2021/07/22 01:07:41;;;;;;;13.20;8.63;;;17.20;99.90;;;;;;4994913;28;20263;-77
2021/07/22 01:10:07;;;;;;;11.17;8.73;;;17.10;99.90;;;;;;4962612;28;20226;-76
2021/07/22 01:12:33;;;;;;;12.23;9.10;;;17.10;99.90;;;;;;4978778;28;20666;-77
2021/07/22 01:14:58;;;;;;;13.73;9.00;;;17.00;99.90;;;;;;4978838;28;20204;-76
2021/07/22 01:17:42;;;;;;;12.87;9.17;;;16.90;99.90;;;;;;4995508;28;20741;-76
2021/07/22 01:20:21;;;;;;;12.33;9.40;;;17.00;99.90;;;;;;4963951;28;20215;-77
2021/07/22 01:22:48;;;;;;;13.00;9.73;;;16.90;99.90;;;;;;4994800;28;20598;-76
2021/07/22 01:25:13;;;;;;;15.47;9.53;;;16.80;99.90;;;;;;4978513;28;20565;-77
2021/07/22 01:27:39;;;;;;;11.00;9.20;;;16.80;99.90;;;;;;4978550;28;20180;-77
2021/07/22 01:30:05;;;;;;;16.50;10.50;;;16.80;99.90;;;;;;4978133;28;20188;-77
2021/07/22 01:32:31;;;;;;;13.17;9.90;;;16.70;99.90;;;;;;4994775;28;20541;-77
2021/07/22 01:37:24;;;;;;;13.33;10.37;;;16.80;99.90;;;;;;4973402;28;20197;-77
2021/07/22 01:39:50;;;;;;;15.10;10.50;;;16.70;99.90;;;;;;4974489;28;20212;-77
2021/07/22 01:42:16;;;;;;;14.57;10.20;;;16.60;99.90;;;;;;4958791;28;20181;-76
2021/07/22 01:44:41;;;;;;;15.07;9.80;;;16.60;99.90;;;;;;4974807;28;20180;-77
2021/07/22 01:47:07;;;;;;;12.07;9.10;;;16.70;99.90;;;;;;4955526;28;20236;-76
2021/07/22 01:49:33;;;;;;;12.57;8.87;;;16.60;99.90;;;;;;4939193;29;20625;-76
2021/07/22 01:52:02;;;;;;;12.43;9.10;;;16.70;99.90;;;;;;4939482;29;20178;-76
2021/07/22 01:54:28;;;;;;;12.93;9.07;;;16.60;99.90;;;;;;4939574;29;20169;-77
2021/07/22 01:56:56;;;;;;;12.47;9.00;;;16.70;99.90;;;;;;4939258;29;20209;-76
2021/07/22 01:59:22;;;;;;;16.00;8.83;;;16.60;99.90;;;;;;4954365;28;20573;-77
2021/07/22 02:01:47;;;;;;;13.13;8.50;;;16.50;99.90;;;;;;4971181;28;20204;-77
2021/07/22 02:04:13;;;;;;;12.80;8.73;;;16.50;99.90;;;;;;4954375;29;20184;-77
2021/07/22 02:06:39;;;;;;;14.23;9.23;;;16.50;99.90;;;;;;4955027;28;20344;-77
2021/07/22 02:09:05;;;;;;;11.93;9.23;;;16.60;99.90;;;;;;4955154;29;20264;-77
2021/07/22 02:11:30;;;;;;;14.60;9.70;;;16.50;99.90;;;;;;4939227;29;20268;-77
2021/07/22 02:13:56;;;;;;;12.60;9.17;;;16.60;99.90;;;;;;4954923;28;20180;-77
2021/07/22 02:16:21;;;;;;;12.40;9.40;;;16.40;99.90;;;;;;4938834;29;20200;-77
2021/07/22 02:18:47;;;;;;;10.93;8.70;;;16.60;99.90;;;;;;4970765;28;20205;-76
2021/07/22 02:21:13;;;;;;;12.60;9.20;;;16.50;99.90;;;;;;4939266;29;20712;-77
2021/07/22 02:23:38;;;;;;;11.40;8.87;;;16.50;99.90;;;;;;4955451;28;20262;-77
2021/07/22 02:26:07;;;;;;;13.90;11.00;;;16.60;99.90;;;;;;4939078;29;20409;-77
2021/07/22 02:28:34;;;;;;;14.67;10.60;;;16.50;99.90;;;;;;4955140;28;20600;-77
2021/07/22 02:30:59;;;;;;;13.77;10.33;;;16.50;99.90;;;;;;4939046;29;20563;-77
2021/07/22 02:33:25;;;;;;;14.97;10.70;;;16.50;99.90;;;;;;4954640;29;20192;-77
2021/07/22 02:35:51;;;;;;;14.33;10.50;;;16.30;99.90;;;;;;4938397;29;20212;-77
2021/07/22 02:38:16;;;;;;;15.13;10.83;;;16.30;99.90;;;;;;4938677;29;20647;-77
2021/07/22 02:40:42;;;;;;;13.97;10.80;;;16.30;99.90;;;;;;4938567;29;20176;-77
2021/07/22 02:43:07;;;;;;;16.30;11.03;;;16.30;99.90;;;;;;4954595;29;20599;-77
2021/07/22 02:45:33;;;;;;;14.67;11.10;;;16.40;99.90;;;;;;4954331;28;20676;-77
2021/07/22 02:47:58;;;;;;;15.33;10.43;;;16.50;99.90;;;;;;4954526;29;20645;-77
2021/07/22 02:50:24;;;;;;;16.10;12.10;;;16.40;99.90;;;;;;4938002;29;20177;-77
2021/07/22 02:52:49;;;;;;;16.17;11.20;;;16.50;99.90;;;;;;4938389;29;20189;-77
2021/07/22 02:55:15;;;;;;;15.33;11.70;;;16.50;99.90;;;;;;4954231;29;20190;-77
2021/07/22 02:57:41;;;;;;;16.13;11.23;;;16.50;99.90;;;;;;4938030;29;20645;-77
2021/07/22 03:00:07;;;;;;;15.40;11.47;;;16.40;99.90;;;;;;4953865;29;20217;-76
2021/07/22 03:02:33;;;;;;;15.30;10.90;;;16.60;99.90;;;;;;4954193;28;20188;-76
2021/07/22 03:04:58;;;;;;;13.57;11.23;;;16.40;99.90;;;;;;4955495;28;20178;-76
2021/07/22 03:07:24;;;;;;;14.37;11.03;;;16.40;99.90;;;;;;4938572;29;20235;-76
2021/07/22 03:09:50;;;;;;;15.33;10.93;;;16.40;99.90;;;;;;4938104;29;20224;-76
2021/07/22 03:12:15;;;;;;;15.03;11.47;;;16.30;99.90;;;;;;4937684;29;20671;-76
2021/07/22 03:14:41;;;;;;;17.00;11.20;;;16.50;99.90;;;;;;4955196;28;20256;-77
2021/07/22 03:17:06;;;;;;;15.60;11.47;;;16.40;99.90;;;;;;4955251;28;20223;-76
2021/07/22 03:19:32;;;;;;;15.70;11.13;;;16.50;99.90;;;;;;4953551;28;20205;-77
2021/07/22 03:21:58;;;;;;;15.57;10.90;;;16.40;99.90;;;;;;4953484;28;20277;-77
2021/07/22 03:24:25;;;;;;;15.53;10.77;;;16.40;99.90;;;;;;4937608;29;20188;-76
2021/07/22 03:26:51;;;;;;;15.50;10.93;;;16.30;99.90;;;;;;4922363;29;20221;-77
2021/07/22 03:29:16;;;;;;;17.33;11.40;;;16.30;99.90;;;;;;4937535;29;20696;-76
2021/07/22 03:31:42;;;;;;;15.70;11.13;;;16.40;99.90;;;;;;4953667;29;20207;-76
2021/07/22 03:34:07;;;;;;;16.20;11.47;;;16.30;99.90;;;;;;4954745;28;20186;-76
2021/07/22 03:36:33;;;;;;;15.43;11.67;;;16.30;99.90;;;;;;4969179;28;20232;-77
2021/07/22 03:38:59;;;;;;;14.97;10.60;;;16.40;99.90;;;;;;4938199;28;20277;-77
2021/07/22 03:41:26;;;;;;;14.33;10.57;;;16.30;99.90;;;;;;4972690;28;20192;-76
2021/07/22 03:43:51;;;;;;;13.57;11.00;;;16.50;99.90;;;;;;4972733;28;20224;-77
2021/07/22 03:46:17;;;;;;;15.50;11.27;;;16.40;99.90;;;;;;4972548;28;20603;-77
2021/07/22 03:48:43;;;;;;;13.40;10.27;;;16.40;99.90;;;;;;4972292;28;20173;-76
2021/07/22 03:51:09;;;;;;;15.80;10.97;;;16.40;99.90;;;;;;4972698;28;20184;-76
2021/07/22 03:53:34;;;;;;;15.50;11.60;;;16.30;99.90;;;;;;4956493;28;20277;-77
2021/07/22 03:56:01;;;;;;;16.10;11.67;;;16.30;99.90;;;;;;4972541;28;20208;-77
2021/07/22 03:58:26;;;;;;;18.23;11.70;;;16.40;99.90;;;;;;4972295;28;20181;-77
2021/07/22 04:00:54;;;;;;;18.30;12.17;;;16.30;99.90;;;;;;4971842;28;20181;-76
2021/07/22 04:03:21;;;;;;;18.13;11.73;;;16.40;99.90;;;;;;4972497;28;20260;-77
2021/07/22 04:05:46;;;;;;;17.47;12.37;;;16.40;99.90;;;;;;4956667;28;20613;-76
2021/07/22 04:08:12;;;;;;;17.63;12.13;;;16.30;99.90;;;;;;4972325;28;20177;-77
2021/07/22 04:10:37;;;;;;;15.17;11.30;;;16.20;99.90;;;;;;4955647;28;20268;-77
2021/07/22 04:13:03;;;;;;;17.07;12.17;;;16.20;99.90;;;;;;4971740;28;20259;-77
2021/07/22 04:15:29;;;;;;;16.57;12.50;;;16.20;99.90;;;;;;4971457;28;20279;-77
2021/07/22 04:17:55;;;;;;;16.07;11.67;;;16.30;99.90;;;;;;4971563;28;20555;-76
2021/07/22 04:20:21;;;;;;;15.63;11.80;;;16.20;99.90;;;;;;4971730;28;20204;-76
2021/07/22 04:22:47;;;;;;;18.77;12.20;;;16.20;99.90;;;;;;4971732;28;20211;-77
2021/07/22 04:25:13;;;;;;;17.03;11.80;;;16.10;99.90;;;;;;4971863;28;20205;-77
2021/07/22 04:27:38;;;;;;;16.20;12.17;;;16.30;99.90;;;;;;4972071;28;20177;-74
2021/07/22 04:30:04;;;;;;;14.63;11.57;;;16.30;99.90;;;;;;4971882;28;20662;-74
2021/07/22 04:32:30;;;;;;;16.67;12.03;;;16.30;99.90;;;;;;4955473;28;20192;-74
2021/07/22 04:34:55;;;;;;;14.80;11.07;;;16.20;99.90;;;;;;4972005;28;20264;-74
2021/07/22 04:37:21;;;;;;;15.70;11.23;;;16.30;99.90;;;;;;4971852;28;20208;-74
2021/07/22 04:39:46;;;;;;;17.80;12.53;;;16.40;99.90;;;;;;4971767;28;20192;-75
2021/07/22 04:42:12;;;;;;;19.47;12.87;;;16.50;99.90;;;;;;4971965;28;20221;-75
2021/07/22 04:44:37;;;;;;;17.57;12.83;;;16.50;99.90;;;;;;4973295;28;20196;-77
2021/07/22 04:47:03;;;;;;;19.67;12.93;;;16.60;99.90;;;;;;4971673;28;20453;-75
2021/07/22 04:49:29;;;;;;;18.87;12.63;;;16.60;99.90;;;;;;4955515;28;20212;-75
2021/07/22 04:51:57;;;;;;;16.27;12.53;;;16.80;99.90;;;;;;4972088;28;20239;-76
2021/07/22 04:54:22;;;;;;;16.83;12.40;;;16.80;99.90;;;;;;4972184;28;20177;-75
2021/07/22 04:56:48;;;;;;;19.20;13.13;;;16.90;99.90;;;;;;4972027;28;20189;-74
2021/07/22 04:59:13;;;;;;;20.70;14.20;;;16.90;99.90;;;;;;4972037;28;20250;-74
2021/07/22 05:01:39;;;;;;;19.50;13.00;;;17.00;99.90;;;;;;4971888;28;20260;-74
2021/07/22 05:04:06;;;;;;;20.50;13.57;;;16.90;99.90;;;;;;4971627;28;20252;-74
2021/07/22 05:06:32;;;;;;;17.93;13.07;;;16.90;99.90;;;;;;4971639;28;20299;-74
2021/07/22 05:08:58;;;;;;;17.60;13.73;;;17.10;99.90;;;;;;4971604;28;20185;-75
2021/07/22 05:11:23;;;;;;;21.57;14.17;;;17.00;99.90;;;;;;4971792;28;20181;-75
2021/07/22 05:13:49;;;;;;;23.53;15.27;;;17.00;99.90;;;;;;4971582;28;20231;-75
2021/07/22 05:16:15;;;;;;;21.07;14.83;;;17.20;99.90;;;;;;4971464;28;20208;-75
2021/07/22 05:18:40;;;;;;;23.27;14.67;;;17.10;99.90;;;;;;4971520;28;20204;-75
2021/07/22 05:21:06;;;;;;;21.13;14.30;;;17.10;99.90;;;;;;4955818;28;20209;-75
2021/07/22 05:23:32;;;;;;;19.47;13.97;;;17.30;99.90;;;;;;4972947;28;20639;-74
2021/07/22 05:25:58;;;;;;;22.17;14.67;;;17.30;99.90;;;;;;4972681;28;20193;-74
2021/07/22 05:28:23;;;;;;;22.20;14.40;;;17.00;99.90;;;;;;4954767;28;20199;-75
2021/07/22 05:30:49;;;;;;;23.87;16.30;;;17.20;99.90;;;;;;4950247;29;20238;-75
2021/07/22 05:33:14;;;;;;;23.10;15.97;;;17.20;99.90;;;;;;4951825;28;20261;-75
2021/07/22 05:35:40;;;;;;;23.43;16.07;;;17.00;99.90;;;;;;4954181;29;20887;-75
2021/07/22 05:38:06;;;;;;;23.53;16.90;;;17.20;99.90;;;;;;4955401;29;20177;-75
2021/07/22 05:40:31;;;;;;;24.20;16.47;;;17.10;99.90;;;;;;4971705;28;20218;-75
2021/07/22 05:42:57;;;;;;;23.20;16.77;;;17.10;99.90;;;;;;4955832;29;20174;-75
2021/07/22 05:45:22;;;;;;;23.57;16.97;;;17.20;99.90;;;;;;4953551;29;20284;-75
2021/07/22 05:47:48;;;;;;;23.93;17.03;;;17.10;99.90;;;;;;4962265;28;20218;-74
2021/07/22 05:50:14;;;;;;;23.27;16.53;;;17.30;99.90;;;;;;4974636;28;20191;-74
2021/07/22 05:52:39;;;;;;;23.70;16.30;;;17.20;99.90;;;;;;4969439;28;20248;-74
2021/07/22 05:55:05;;;;;;;23.27;16.73;;;17.30;99.90;;;;;;4974839;28;20181;-75
2021/07/22 05:57:32;;;;;;;26.50;15.97;;;17.50;99.90;;;;;;4975091;28;20538;-75
2021/07/22 05:59:58;;;;;;;22.77;16.83;;;17.50;99.90;;;;;;4975505;28;20195;-75
2021/07/22 06:02:23;;;;;;;22.77;16.57;;;17.50;99.90;;;;;;4974745;28;20554;-75
2021/07/22 06:04:49;;;;;;;20.90;15.53;;;17.50;99.90;;;;;;4974670;28;20197;-75
2021/07/22 06:07:14;;;;;;;27.23;16.97;;;17.60;99.90;;;;;;4974490;28;20193;-75
2021/07/22 06:09:40;;;;;;;24.27;17.13;;;17.60;99.90;;;;;;4974236;28;20618;-75
2021/07/22 06:12:06;;;;;;;21.40;15.77;;;17.60;99.90;;;;;;4974544;28;20189;-75
2021/07/22 06:14:31;;;;;;;24.20;15.90;;;17.70;99.90;;;;;;4974574;28;20232;-75
2021/07/22 06:16:57;;;;;;;24.87;16.40;;;17.80;99.90;;;;;;4958136;28;20211;-74
2021/07/22 06:19:22;;;;;;;22.83;16.20;;;17.70;99.90;;;;;;4957786;28;20307;-75
2021/07/22 06:21:48;;;;;;;25.90;16.30;;;17.70;99.90;;;;;;4958276;28;20185;-75
2021/07/22 06:24:13;;;;;;;22.97;16.57;;;17.70;99.90;;;;;;4974402;28;20208;-75
2021/07/22 06:26:39;;;;;;;24.20;15.77;;;17.80;99.90;;;;;;4974225;28;20192;-75
2021/07/22 06:29:04;;;;;;;25.30;16.83;;;17.90;99.90;;;;;;4973864;28;20189;-75
2021/07/22 06:31:30;;;;;;;23.40;17.03;;;18.00;99.90;;;;;;4974259;28;20239;-75
2021/07/22 06:33:58;;;;;;;27.37;17.43;;;17.80;99.90;;;;;;4957905;28;20185;-75
2021/07/22 06:36:24;;;;;;;22.40;16.33;;;17.90;99.90;;;;;;4958250;28;20592;-75
2021/07/22 06:38:50;;;;;;;23.20;16.87;;;18.00;99.90;;;;;;4973913;28;20204;-75
2021/07/22 06:41:19;;;;;;;23.10;16.80;;;18.10;99.90;;;;;;4957943;28;20771;-74
2021/07/22 06:43:44;;;;;;;26.20;16.60;;;18.20;99.90;;;;;;4974191;28;20576;-74
2021/07/22 06:46:13;;;;;;;21.43;16.20;;;18.20;99.90;;;;;;4975039;28;20197;-74
2021/07/22 06:48:39;;;;;;;24.37;16.93;;;18.30;99.90;;;;;;4973784;28;20317;-76
2021/07/22 06:51:08;;;;;;;24.13;16.67;;;18.40;99.90;;;;;;4973859;28;20181;-73
2021/07/22 06:53:34;;;;;;;22.50;17.13;;;18.60;99.90;;;;;;4973610;28;20173;-73
2021/07/22 06:55:59;;;;;;;21.43;17.10;;;18.50;99.90;;;;;;4957356;28;20208;-74
2021/07/22 06:58:25;;;;;;;23.57;16.80;;;18.80;99.90;;;;;;4973653;28;20177;-74
2021/07/22 07:00:51;;;;;;;23.67;17.07;;;18.80;99.90;;;;;;4973422;28;20177;-73
2021/07/22 07:03:18;;;;;;;25.80;18.13;;;18.90;99.90;;;;;;4973197;28;20181;-74
2021/07/22 07:05:44;;;;;;;25.70;17.07;;;19.00;99.90;;;;;;4957195;28;20284;-74
2021/07/22 07:08:09;;;;;;;25.17;18.13;;;19.10;99.90;;;;;;4966996;28;20276;-74
2021/07/22 07:10:35;;;;;;;24.40;17.60;;;19.50;99.90;;;;;;4961815;28;20259;-74
2021/07/22 07:13:03;;;;;;;25.60;18.07;;;19.50;99.90;;;;;;4972305;28;20193;-74
2021/07/22 07:15:29;;;;;;;23.60;17.07;;;19.60;99.90;;;;;;4951507;29;20691;-75
2021/07/22 07:17:57;;;;;;;24.60;17.03;;;19.70;99.90;;;;;;4953984;29;20185;-76
2021/07/22 07:20:23;;;;;;;23.73;17.27;;;20.20;99.90;;;;;;4953978;29;20209;-74
2021/07/22 07:22:53;;;;;;;21.50;16.70;;;20.40;99.90;;;;;;4953674;29;20264;-75
2021/07/22 07:25:19;;;;;;;22.50;16.40;;;21.00;99.90;;;;;;4954101;29;20197;-73
2021/07/22 07:27:44;;;;;;;21.50;15.77;;;21.30;99.90;;;;;;4937926;29;20192;-74
2021/07/22 07:30:11;;;;;;;21.20;16.17;;;21.40;99.90;;;;;;4954820;28;20235;-73
2021/07/22 07:32:37;;;;;;;20.43;16.17;;;21.60;99.90;;;;;;4951767;29;20193;-76
2021/07/22 07:35:03;;;;;;;23.27;16.07;;;21.80;99.90;;;;;;4944438;29;20197;-73
2021/07/22 07:37:28;;;;;;;24.10;15.80;;;21.90;99.90;;;;;;4946001;29;20185;-74
2021/07/22 07:39:54;;;;;;;24.37;16.20;;;22.00;99.90;;;;;;4944175;29;20233;-76
2021/07/22 07:42:19;;;;;;;23.40;17.00;;;22.00;99.90;;;;;;4942694;29;20205;-74
2021/07/22 07:44:45;;;;;;;23.80;16.77;;;21.90;99.90;;;;;;4934831;29;20178;-74
2021/07/22 07:47:10;;;;;;;20.83;15.67;;;22.00;99.90;;;;;;4934548;29;20198;-75
2021/07/22 07:49:36;;;;;;;25.53;15.77;;;22.00;99.90;;;;;;4933940;29;20322;-74
2021/07/22 07:52:01;;;;;;;23.53;15.23;;;22.40;99.90;;;;;;4934469;29;20273;-74
2021/07/22 07:54:27;;;;;;;23.97;16.43;;;22.90;99.90;;;;;;4934360;29;20307;-75
2021/07/22 07:56:52;;;;;;;25.30;16.50;;;22.90;99.90;;;;;;4933719;29;20681;-75
2021/07/22 07:59:18;;;;;;;23.70;16.77;;;23.00;99.90;;;;;;4932501;29;20729;-74
2021/07/22 08:01:44;;;;;;;21.60;16.10;;;23.10;99.90;;;;;;4933856;29;20269;-75
2021/07/22 08:04:09;;;;;;;19.30;15.57;;;23.20;99.90;;;;;;4916899;29;20210;-75
2021/07/22 08:06:35;;;;;;;22.77;16.50;;;23.20;99.90;;;;;;4917445;29;20673;-74
2021/07/22 08:09:00;;;;;;;21.97;16.17;;;23.20;99.90;;;;;;4934661;29;20638;-75
2021/07/22 08:11:26;;;;;;;22.07;16.00;;;23.30;99.90;;;;;;4935229;29;20213;-74
2021/07/22 08:13:51;;;;;;;21.90;15.77;;;23.60;99.90;;;;;;4934024;29;20554;-74
2021/07/22 08:16:17;;;;;;;19.90;14.88;;;23.70;99.90;;;;;;4933566;29;20750;-75
2021/07/22 08:18:45;;;;;;;20.20;15.57;;;23.70;99.90;;;;;;4917810;29;20184;-75
2021/07/22 08:21:11;;;;;;;20.40;15.57;;;23.60;99.90;;;;;;4918111;29;20179;-76
2021/07/22 08:23:36;;;;;;;21.20;15.53;;;23.60;99.90;;;;;;4933820;29;20181;-78
2021/07/22 08:26:02;;;;;;;20.65;15.48;;;23.80;99.90;;;;;;4933652;29;20202;-76
2021/07/22 08:28:28;;;;;;;20.50;14.33;;;23.90;99.90;;;;;;4933765;29;20178;-76
2021/07/22 08:30:53;;;;;;;22.52;15.57;;;23.80;99.90;;;;;;4917738;29;20174;-77
2021/07/22 08:33:19;;;;;;;20.55;14.63;;;23.70;99.90;;;;;;4934875;29;20174;-78
2021/07/22 08:35:44;;;;;;;20.67;16.23;;;23.70;99.90;;;;;;4933088;29;20256;-77
2021/07/22 08:38:15;;;;;;;20.83;15.35;;;23.80;99.90;;;;;;4933637;29;20182;-76
2021/07/22 08:40:41;;;;;;;21.75;16.08;;;23.90;99.90;;;;;;4933119;29;20214;-77
2021/07/22 08:43:07;;;;;;;19.45;15.43;;;23.80;99.90;;;;;;4933254;29;20181;-77
2021/07/22 08:45:32;;;;;;;20.08;15.07;;;23.90;99.90;;;;;;4917508;29;20198;-77
2021/07/22 08:47:58;;;;;;;20.58;14.82;;;23.90;99.90;;;;;;4917374;29;20174;-77
2021/07/22 08:50:24;;;;;;;21.08;15.35;;;24.00;99.90;;;;;;4949287;28;20201;-77
2021/07/22 08:52:50;;;;;;;20.83;14.97;;;24.10;99.90;;;;;;4933631;29;20237;-77
2021/07/22 08:55:16;;;;;;;18.48;13.77;;;24.00;99.90;;;;;;4933725;29;20257;-77
2021/07/22 08:57:42;;;;;;;20.60;14.73;;;24.30;99.90;;;;;;4917699;29;20181;-77
2021/07/22 09:00:08;;;;;;;17.75;14.75;;;24.50;99.90;;;;;;4917145;29;20206;-78
2021/07/22 09:02:34;;;;;;;20.30;14.75;;;24.40;99.90;;;;;;4933214;29;20170;-77
2021/07/22 09:05:01;;;;;;;20.50;15.52;;;24.40;99.90;;;;;;4917628;29;20290;-77
2021/07/22 09:07:27;;;;;;;19.17;13.73;;;24.40;99.90;;;;;;4917806;29;20266;-77
2021/07/22 09:10:05;;;;;;;18.48;13.05;;;24.60;99.90;;;;;;4920488;29;20570;-76
2021/07/22 09:12:38;;;;;;;19.17;13.55;;;24.80;99.90;;;;;;4938176;29;20738;-76
2021/07/22 09:15:04;;;;;;;17.38;12.68;;;25.00;99.90;;;;;;4921326;29;20549;-77
2021/07/22 09:17:30;;;;;;;21.67;13.50;;;25.00;99.90;;;;;;4921220;29;20674;-78
2021/07/22 09:19:55;;;;;;;16.95;13.10;;;24.90;99.90;;;;;;4937680;29;20237;-77
2021/07/22 09:22:40;;;;;;;19.80;14.10;;;24.90;99.90;;;;;;4936817;29;20202;-76
2021/07/22 09:25:07;;;;;;;18.92;14.75;;;24.40;99.90;;;;;;4921338;29;20524;-77
2021/07/22 09:27:33;;;;;;;20.13;15.27;;;24.50;99.90;;;;;;4921074;29;20182;-76
2021/07/22 09:29:59;;;;;;;21.27;15.38;;;24.70;99.90;;;;;;4936507;29;20190;-77
2021/07/22 09:32:34;;;;;;;19.80;15.32;;;24.60;99.90;;;;;;4920881;29;20182;-77
2021/07/22 09:35:09;;;;;;;18.38;14.50;;;24.60;99.90;;;;;;4936566;29;20178;-77
2021/07/22 09:37:35;;;;;;;19.52;14.35;;;25.10;99.90;;;;;;4952475;28;20561;-77
2021/07/22 09:40:01;;;;;;;18.50;14.65;;;25.10;99.90;;;;;;4936065;29;20218;-77
2021/07/22 09:42:26;;;;;;;18.85;14.38;;;25.00;99.90;;;;;;4937667;29;20639;-77
2021/07/22 09:44:52;;;;;;;19.88;15.00;;;25.00;99.90;;;;;;4920725;29;20189;-76
2021/07/22 09:47:26;;;;;;;19.42;13.93;;;24.90;99.90;;;;;;4937429;29;20198;-77
2021/07/22 09:49:52;;;;;;;19.38;13.30;;;25.00;99.90;;;;;;4920676;29;20182;-77
2021/07/22 09:52:17;;;;;;;18.98;14.10;;;25.20;99.90;;;;;;4937316;29;20190;-77
2021/07/22 09:54:43;;;;;;;18.45;14.70;;;25.00;99.90;;;;;;4936362;29;20178;-76
2021/07/22 09:57:19;;;;;;;20.15;15.52;;;24.60;99.90;;;;;;4920538;29;20213;-76
2021/07/22 09:59:46;;;;;;;23.23;16.15;;;24.70;99.90;;;;;;4936232;29;20676;-77
2021/07/22 10:02:22;;;;;;;22.23;16.13;;;24.40;99.90;;;;;;4920642;29;20171;-77
2021/07/22 10:04:54;;;;;;;21.15;15.60;;;24.40;99.90;;;;;;4920406;29;20173;-77
2021/07/22 10:07:21;;;;;;;20.15;14.82;;;24.40;99.90;;;;;;4921014;29;20330;-77
2021/07/22 10:09:52;;;;;;;19.50;15.57;;;24.20;99.90;;;;;;4935727;29;20789;-77
2021/07/22 10:12:21;;;;;;;21.00;15.48;;;24.00;99.90;;;;;;4935784;29;20220;-77
2021/07/22 10:14:55;;;;;;;19.27;15.07;;;24.20;99.90;;;;;;4935983;29;20562;-77
2021/07/22 10:17:26;;;;;;;18.70;14.40;;;24.20;99.90;;;;;;4920318;29;20202;-77
2021/07/22 10:19:53;;;;;;;19.27;14.15;;;24.20;99.90;;;;;;4919613;29;20581;-77
2021/07/22 10:22:18;;;;;;;18.98;14.40;;;24.00;99.90;;;;;;4935977;29;20182;-77
2021/07/22 10:24:44;;;;;;;20.58;15.00;;;24.10;99.90;;;;;;4935640;29;20177;-77
2021/07/22 10:27:10;;;;;;;23.70;15.98;;;24.00;99.90;;;;;;4919749;29;20202;-76
2021/07/22 10:29:35;;;;;;;19.10;15.35;;;24.00;99.90;;;;;;4919750;29;20650;-77
2021/07/22 10:32:01;;;;;;;20.50;14.43;;;24.00;99.90;;;;;;4936920;29;20190;-76
2021/07/22 10:34:26;;;;;;;22.70;16.77;;;23.80;99.90;;;;;;4919620;29;20186;-77
2021/07/22 10:36:52;;;;;;;25.08;15.50;;;23.50;99.90;;;;;;4919651;29;20214;-77
2021/07/22 10:39:56;;;;;;;20.77;15.00;;;23.40;99.90;;;;;;4919292;29;20225;-78
2021/07/22 10:42:43;;;;;;;21.60;15.65;;;23.90;99.90;;;;;;4936676;29;20170;-78
2021/07/22 10:45:27;;;;;;;21.45;16.10;;;24.10;99.90;;;;;;4936451;29;20175;-77
2021/07/22 10:47:59;;;;;;;21.08;14.80;;;24.40;99.90;;;;;;4919705;29;20170;-77
2021/07/22 10:50:42;;;;;;;20.10;14.68;;;24.60;99.90;;;;;;4934975;29;20222;-77
2021/07/22 10:53:07;;;;;;;20.27;15.07;;;24.60;99.90;;;;;;4936405;29;20217;-77
2021/07/22 10:55:42;;;;;;;20.60;16.15;;;24.70;99.90;;;;;;4936262;29;20202;-77
2021/07/22 10:58:34;;;;;;;19.23;15.18;;;24.60;99.90;;;;;;4936308;29;20684;-77
2021/07/22 11:01:01;;;;;;;17.95;14.10;;;24.40;99.90;;;;;;4936353;29;20182;-77
2021/07/22 11:03:35;;;;;;;20.30;14.05;;;24.10;99.90;;;;;;4919266;29;20190;-78
2021/07/22 11:06:05;;;;;;;17.45;13.35;;;24.00;99.90;;;;;;4936524;29;20285;-77
2021/07/22 11:08:32;;;;;;;19.13;14.27;;;23.80;99.90;;;;;;4934645;29;20179;-77
2021/07/22 11:11:08;;;;;;;15.77;13.23;;;23.80;99.90;;;;;;4934729;29;20189;-77
2021/07/22 11:13:37;;;;;;;21.45;15.07;;;23.60;99.90;;;;;;4919136;29;20174;-77
2021/07/22 11:16:06;;;;;;;18.58;14.73;;;23.60;99.90;;;;;;4935859;29;20249;-76
2021/07/22 11:18:42;;;;;;;19.67;14.67;;;23.50;99.90;;;;;;4935805;29;20225;-77
2021/07/22 11:21:11;;;;;;;17.50;13.55;;;23.40;99.90;;;;;;4936018;29;20174;-76
2021/07/22 11:23:37;;;;;;;17.57;13.37;;;23.50;99.90;;;;;;4934568;29;20175;-77
2021/07/22 11:26:03;;;;;;;18.35;14.07;;;23.70;99.90;;;;;;4934527;29;20204;-77
2021/07/22 11:28:28;;;;;;;20.25;14.35;;;24.00;99.90;;;;;;4918543;29;20209;-77
2021/07/22 11:31:07;;;;;;;18.40;13.88;;;24.00;99.90;;;;;;4918343;29;20198;-77
2021/07/22 11:33:37;;;;;;;18.48;13.80;;;24.40;99.90;;;;;;4933842;29;20170;-77
2021/07/22 11:36:06;;;;;;;17.55;13.15;;;24.40;99.90;;;;;;4918552;29;20243;-77
2021/07/22 11:38:33;;;;;;;18.13;13.77;;;24.60;99.90;;;;;;4934351;29;20182;-76
2021/07/22 11:40:59;;;;;;;19.15;13.80;;;24.60;99.90;;;;;;4918346;29;20697;-77
2021/07/22 11:43:44;;;;;;;18.60;13.07;;;24.70;99.90;;;;;;4918356;29;20257;-77
2021/07/22 11:46:31;;;;;;;17.73;12.80;;;24.60;99.90;;;;;;4918567;29;20205;-77
2021/07/22 11:48:56;;;;;;;18.20;12.23;;;24.50;99.90;;;;;;4933786;29;20201;-77
2021/07/22 11:51:22;;;;;;;16.17;11.60;;;24.60;99.90;;;;;;4949972;28;20190;-76
2021/07/22 11:53:48;;;;;;;16.95;12.23;;;24.50;99.90;;;;;;4934125;29;20194;-77
2021/07/22 11:56:14;;;;;;;16.67;12.88;;;24.40;99.90;;;;;;4935160;29;20292;-77
2021/07/22 11:58:50;;;;;;;14.73;12.15;;;24.40;99.90;;;;;;4933729;29;20557;-78
2021/07/22 12:01:16;;;;;;;16.00;11.05;;;24.30;99.90;;;;;;4934133;29;20170;-77
2021/07/22 12:03:45;;;;;;;15.32;11.57;;;24.00;99.90;;;;;;4949822;28;20261;-77
2021/07/22 12:06:10;;;;;;;19.88;13.85;;;24.00;99.90;;;;;;4918157;29;20210;-77
2021/07/22 12:08:36;;;;;;;15.45;11.85;;;24.10;99.90;;;;;;4933849;29;20241;-78
2021/07/22 12:11:03;;;;;;;14.90;11.65;;;24.20;99.90;;;;;;4933855;29;20573;-76
2021/07/22 12:13:51;;;;;;;16.98;11.85;;;24.50;99.90;;;;;;4933822;29;20206;-76
2021/07/22 12:16:20;;;;;;;13.75;10.65;;;24.50;99.90;;;;;;4918272;29;20241;-77
2021/07/22 12:18:50;;;;;;;14.18;10.65;;;24.50;99.90;;;;;;4934447;29;20216;-77
2021/07/22 12:21:25;;;;;;;13.95;10.98;;;24.70;99.90;;;;;;4918115;29;20194;-77
2021/07/22 12:23:52;;;;;;;12.73;10.25;;;24.80;99.90;;;;;;4933854;29;20314;-77
2021/07/22 12:26:18;;;;;;;14.30;11.20;;;24.90;99.90;;;;;;4918284;29;20222;-77
2021/07/22 12:28:45;;;;;;;13.40;10.23;;;25.00;99.90;;;;;;4934042;29;20210;-76
2021/07/22 12:31:21;;;;;;;11.43;9.35;;;24.90;99.90;;;;;;4918448;29;20229;-78